Terminal Aerodrome Forecast
Issued by NWS

Home | Current Version | Previous Version | Graphics & Text | Print | Product List | Glossary On
Versions: 1 2 3 4 5 6 7 8 9 10 11 12 13 14 15 16 17 18 19 20 21 22 23 24 25 26 27 28 29 30
886
FTUS43 KGRB 221725
TAFATW
TAF
KATW 221725Z 2218/2318 10004KT P6SM FEW030 SCT250
     FM222300 12005KT P6SM SCT250
     FM230400 13004KT P6SM SCT150 BKN250
     FM230800 14004KT P6SM BKN090
     FM231300 15007KT P6SM VCSH SCT040 OVC080
     FM231600 15012G18KT P6SM OVC080=

USA.gov is the U.S. government's official web portal to all federal, state and local government web resources and services.